Time;durP1;ratioP1;P1;durP2;ratioP2;P2;SDS_P1;SDS_P2;PMS_P1;PMS_P2;Temp;Humidity;BMP_temperature;BMP_pressure;BME280_temperature;BME280_humidity;BME280_pressure;Samples;Min_cycle;Max_cycle;Signal;HPM_P1;HPM_P2
2022/10/25 00:01:45;;;;;;;8.50;8.10;;;13.90;99.90;;;;;;10379731;28;20214;-78
2022/10/25 00:06:47;;;;;;;8.43;7.90;;;14.00;99.90;;;;;;10339623;28;20211;-80
2022/10/25 00:11:51;;;;;;;8.27;7.73;;;14.00;99.90;;;;;;10344443;28;21068;-79
2022/10/25 00:16:53;;;;;;;8.27;7.97;;;14.00;99.90;;;;;;10319278;28;20218;-79
2022/10/25 00:21:55;;;;;;;8.60;8.10;;;14.00;99.90;;;;;;10333891;28;20231;-78
2022/10/25 00:26:58;;;;;;;8.47;7.97;;;14.00;99.90;;;;;;10356829;28;20678;-79
2022/10/25 00:32:00;;;;;;;8.20;7.80;;;14.00;99.90;;;;;;10357281;28;20191;-78
2022/10/25 00:37:02;;;;;;;8.37;7.87;;;14.10;99.90;;;;;;10375709;28;20238;-76
2022/10/25 00:42:08;;;;;;;8.50;8.07;;;14.00;99.90;;;;;;10373535;28;20245;-78
2022/10/25 00:47:17;;;;;;;8.47;7.77;;;14.00;99.90;;;;;;10355778;28;20709;-77
2022/10/25 00:52:19;;;;;;;8.37;7.90;;;14.00;99.90;;;;;;10373053;28;20195;-77
2022/10/25 00:57:27;;;;;;;8.03;7.63;;;14.00;99.90;;;;;;10372828;28;20226;-79
2022/10/25 01:02:29;;;;;;;8.60;8.10;;;14.00;99.90;;;;;;10368783;28;20238;-78
2022/10/25 01:07:31;;;;;;;8.10;7.60;;;14.00;99.90;;;;;;10332409;28;20306;-78
2022/10/25 01:12:35;;;;;;;8.33;7.93;;;14.00;99.90;;;;;;10314630;28;20554;-78
2022/10/25 01:17:48;;;;;;;8.57;7.97;;;14.00;99.90;;;;;;10331989;28;20227;-77
2022/10/25 01:22:57;;;;;;;8.33;7.83;;;14.10;99.90;;;;;;10332077;28;20227;-78
2022/10/25 01:28:09;;;;;;;9.03;8.53;;;14.10;99.90;;;;;;10330972;28;20243;-78
2022/10/25 01:33:19;;;;;;;11.80;8.43;;;14.10;99.90;;;;;;10331213;28;20537;-79
2022/10/25 01:38:33;;;;;;;8.63;8.13;;;14.10;99.90;;;;;;10371027;28;20744;-78
2022/10/25 01:43:46;;;;;;;8.93;8.30;;;14.10;99.90;;;;;;10353129;28;20288;-79
2022/10/25 01:48:54;;;;;;;8.37;7.77;;;14.10;99.90;;;;;;10350347;28;20213;-78
2022/10/25 01:53:56;;;;;;;8.53;7.87;;;14.00;99.90;;;;;;10330871;28;20842;-78
2022/10/25 01:59:19;;;;;;;8.23;7.63;;;14.10;99.90;;;;;;10336216;28;20214;-78
2022/10/25 02:04:30;;;;;;;7.23;6.60;;;14.10;99.90;;;;;;10349495;28;20250;-79
2022/10/25 02:09:42;;;;;;;7.43;6.70;;;14.20;99.90;;;;;;10339518;28;20705;-78
2022/10/25 02:14:52;;;;;;;7.30;6.73;;;14.20;99.90;;;;;;10330962;28;20219;-79
2022/10/25 02:19:59;;;;;;;7.30;6.70;;;14.20;99.90;;;;;;10322198;28;20321;-78
2022/10/25 02:25:02;;;;;;;10.47;6.57;;;14.20;99.90;;;;;;10371884;28;20223;-79
2022/10/25 02:30:06;;;;;;;7.20;6.90;;;14.20;99.90;;;;;;10347267;28;20203;-78
2022/10/25 02:35:15;;;;;;;6.83;6.23;;;14.20;99.90;;;;;;10334626;28;20576;-78
2022/10/25 02:40:17;;;;;;;6.23;5.83;;;14.20;99.90;;;;;;10352746;28;20718;-79
2022/10/25 02:45:19;;;;;;;6.97;6.33;;;14.20;99.90;;;;;;10367916;28;20659;-79
2022/10/25 02:50:22;;;;;;;6.73;6.33;;;14.20;99.90;;;;;;10340295;28;20678;-79
2022/10/25 02:55:24;;;;;;;6.00;5.60;;;14.10;99.90;;;;;;10352997;28;20310;-78
2022/10/25 03:00:28;;;;;;;6.53;5.87;;;14.10;99.90;;;;;;10346238;28;20281;-78
2022/10/25 03:05:31;;;;;;;6.23;5.70;;;14.10;99.90;;;;;;10371960;28;20215;-79
2022/10/25 03:10:36;;;;;;;6.87;6.37;;;14.10;99.90;;;;;;10344677;28;20670;-79
2022/10/25 03:15:38;;;;;;;6.17;5.73;;;14.10;99.90;;;;;;10370858;28;20695;-79
2022/10/25 03:20:42;;;;;;;5.90;5.40;;;14.20;99.90;;;;;;10315161;28;20226;-78
2022/10/25 03:25:44;;;;;;;5.27;4.80;;;14.20;99.90;;;;;;10349513;28;20308;-79
2022/10/25 03:30:46;;;;;;;6.27;5.87;;;14.10;99.90;;;;;;10352734;28;20187;-78
2022/10/25 03:35:51;;;;;;;9.47;8.67;;;14.10;99.90;;;;;;10362087;28;20219;-78
2022/10/25 03:40:53;;;;;;;11.80;6.60;;;14.10;99.90;;;;;;10343686;28;20208;-78
2022/10/25 03:45:55;;;;;;;5.60;5.03;;;14.10;99.90;;;;;;10372555;28;20684;-78
2022/10/25 03:50:59;;;;;;;6.70;6.30;;;14.10;99.90;;;;;;10319827;28;20265;-78
2022/10/25 03:56:01;;;;;;;7.10;6.50;;;14.10;99.90;;;;;;10340806;28;20225;-78
2022/10/25 04:01:03;;;;;;;6.50;4.93;;;14.10;99.90;;;;;;10372719;28;20214;-77
2022/10/25 04:06:06;;;;;;;7.27;6.17;;;14.10;99.90;;;;;;10371368;28;20651;-78
2022/10/25 04:11:08;;;;;;;5.73;5.23;;;14.10;99.90;;;;;;10375382;28;20175;-79
2022/10/25 04:16:11;;;;;;;5.60;5.30;;;14.10;99.90;;;;;;10354966;28;20215;-78
2022/10/25 04:21:14;;;;;;;5.70;5.30;;;14.10;99.90;;;;;;10340263;28;20219;-78
2022/10/25 04:26:18;;;;;;;6.67;6.13;;;14.10;99.90;;;;;;10378159;28;20210;-79
2022/10/25 04:31:22;;;;;;;5.87;5.30;;;14.10;99.90;;;;;;10306047;28;20203;-78
2022/10/25 04:36:28;;;;;;;7.30;6.60;;;14.00;99.90;;;;;;10358006;28;20529;-79
2022/10/25 04:41:30;;;;;;;6.33;5.83;;;14.00;99.90;;;;;;10375741;28;20309;-79
2022/10/25 04:46:32;;;;;;;5.60;5.10;;;14.00;99.90;;;;;;10330932;28;20253;-78
2022/10/25 04:51:36;;;;;;;6.57;5.93;;;14.00;99.90;;;;;;10376529;28;20178;-78
2022/10/25 04:56:38;;;;;;;8.53;7.73;;;14.00;99.90;;;;;;10318518;28;20207;-79
2022/10/25 05:01:40;;;;;;;6.90;6.30;;;13.90;99.90;;;;;;10376798;28;20214;-78
2022/10/25 05:06:43;;;;;;;7.37;6.87;;;13.90;99.90;;;;;;10377515;28;20702;-80
2022/10/25 05:11:45;;;;;;;7.10;6.57;;;13.90;99.90;;;;;;10339493;28;20198;-79
2022/10/25 05:16:47;;;;;;;8.30;6.63;;;13.90;99.90;;;;;;10384480;28;20532;-80
2022/10/25 05:21:51;;;;;;;6.57;6.07;;;13.90;99.90;;;;;;10318626;28;20215;-78
2022/10/25 05:26:53;;;;;;;5.67;5.27;;;13.90;99.90;;;;;;10375393;28;20214;-77
2022/10/25 05:31:55;;;;;;;6.80;6.20;;;13.90;99.90;;;;;;10338811;28;20194;-78
2022/10/25 05:36:58;;;;;;;6.13;4.40;;;13.90;99.90;;;;;;10375283;28;20632;-78
2022/10/25 05:42:05;;;;;;;6.53;6.10;;;13.80;99.90;;;;;;10336494;28;20934;-79
2022/10/25 05:47:07;;;;;;;7.30;6.47;;;13.90;99.90;;;;;;10373727;28;20750;-80
2022/10/25 05:52:11;;;;;;;6.20;5.40;;;13.90;99.90;;;;;;10332671;28;20191;-77
2022/10/25 05:57:13;;;;;;;7.30;6.80;;;13.90;99.90;;;;;;10315067;28;20219;-78
2022/10/25 06:02:15;;;;;;;6.60;5.93;;;13.90;99.90;;;;;;10369885;28;20690;-79
2022/10/25 06:07:18;;;;;;;6.20;5.60;;;13.90;99.90;;;;;;10338257;28;20215;-79
2022/10/25 06:12:20;;;;;;;7.97;7.23;;;13.90;99.90;;;;;;10372704;28;20195;-79
2022/10/25 06:17:22;;;;;;;7.77;7.20;;;13.90;99.90;;;;;;10342485;28;20227;-78
2022/10/25 06:22:26;;;;;;;5.80;5.20;;;13.90;99.90;;;;;;10366978;28;20267;-77
2022/10/25 06:27:27;;;;;;;6.37;5.97;;;13.90;99.90;;;;;;10318501;28;20219;-77
2022/10/25 06:32:29;;;;;;;7.07;6.13;;;13.90;99.90;;;;;;10375094;28;20197;-77
2022/10/25 06:37:33;;;;;;;7.67;6.43;;;13.90;99.90;;;;;;10343821;28;20230;-80
2022/10/25 06:42:35;;;;;;;14.23;9.80;;;13.90;99.90;;;;;;10375895;28;20289;-78
2022/10/25 06:47:37;;;;;;;9.50;6.60;;;14.00;99.90;;;;;;10378239;28;20702;-78
2022/10/25 06:52:40;;;;;;;8.07;7.20;;;13.90;99.90;;;;;;10378234;28;20226;-78
2022/10/25 06:57:42;;;;;;;17.20;15.37;;;14.00;99.90;;;;;;10360530;28;20218;-77
2022/10/25 07:02:53;;;;;;;10.20;9.20;;;14.00;99.90;;;;;;10377661;28;20273;-77
2022/10/25 07:07:56;;;;;;;9.80;7.10;;;14.00;99.90;;;;;;10376376;28;20257;-77
2022/10/25 07:12:58;;;;;;;5.93;5.37;;;14.00;99.90;;;;;;10377841;28;20486;-78
2022/10/25 07:18:00;;;;;;;15.57;8.27;;;14.00;99.90;;;;;;10342789;28;20306;-78
2022/10/25 07:23:04;;;;;;;7.83;7.23;;;14.10;99.90;;;;;;10336327;28;20269;-78
2022/10/25 07:28:06;;;;;;;6.63;6.10;;;14.10;99.90;;;;;;10369206;28;20241;-78
2022/10/25 07:33:08;;;;;;;6.07;5.40;;;14.10;99.90;;;;;;10359647;28;20209;-78
2022/10/25 07:38:11;;;;;;;5.43;4.93;;;14.20;99.90;;;;;;10378390;28;20210;-79
2022/10/25 07:43:13;;;;;;;5.17;4.77;;;14.20;99.90;;;;;;10380983;28;20218;-78
2022/10/25 07:48:15;;;;;;;5.60;5.20;;;14.30;99.90;;;;;;10379238;28;20659;-77
2022/10/25 07:53:19;;;;;;;5.57;5.17;;;14.40;99.90;;;;;;10374330;28;20576;-78
2022/10/25 07:58:21;;;;;;;5.07;4.37;;;14.40;99.90;;;;;;10343271;28;20307;-79
2022/10/25 08:03:24;;;;;;;5.40;4.50;;;14.50;99.90;;;;;;10335701;28;20211;-78
2022/10/25 08:08:27;;;;;;;6.27;4.10;;;14.60;99.90;;;;;;10335206;28;20215;-78
2022/10/25 08:13:29;;;;;;;6.23;4.60;;;14.70;99.90;;;;;;10317138;28;20192;-78
2022/10/25 08:18:32;;;;;;;4.87;4.57;;;14.70;99.90;;;;;;10365043;28;20283;-77
2022/10/25 08:23:36;;;;;;;5.43;4.93;;;14.80;99.90;;;;;;10344197;28;20211;-77
2022/10/25 08:28:38;;;;;;;4.40;4.10;;;14.90;99.90;;;;;;10363816;28;20219;-77
2022/10/25 08:33:40;;;;;;;7.43;6.10;;;14.90;99.90;;;;;;10345053;28;20572;-78
2022/10/25 08:38:43;;;;;;;5.00;4.60;;;15.00;99.90;;;;;;10354233;28;20245;-78
2022/10/25 08:44:08;;;;;;;6.43;5.93;;;15.10;99.90;;;;;;10374823;28;20285;-78
2022/10/25 08:49:17;;;;;;;7.27;4.60;;;15.10;99.90;;;;;;10357218;28;20245;-78
2022/10/25 08:54:27;;;;;;;6.17;5.67;;;15.20;99.90;;;;;;10380282;28;20195;-78
2022/10/25 08:59:34;;;;;;;5.40;4.90;;;15.20;99.90;;;;;;10341742;28;20282;-78
2022/10/25 09:04:36;;;;;;;5.33;5.00;;;15.30;99.90;;;;;;10367456;28;20217;-78
2022/10/25 09:09:46;;;;;;;5.60;5.10;;;15.30;99.90;;;;;;10340679;28;20274;-78
2022/10/25 09:14:57;;;;;;;5.77;5.27;;;15.40;99.90;;;;;;10366823;28;20591;-79
2022/10/25 09:20:05;;;;;;;5.30;4.73;;;15.40;99.90;;;;;;10366402;28;20198;-79
2022/10/25 09:25:15;;;;;;;5.97;5.47;;;15.50;99.90;;;;;;10373903;28;20244;-79
2022/10/25 09:30:17;;;;;;;5.20;4.80;;;15.50;99.90;;;;;;10374825;28;20186;-79
2022/10/25 09:35:25;;;;;;;4.73;4.13;;;15.60;99.90;;;;;;10374617;28;20216;-79
2022/10/25 09:40:35;;;;;;;3.97;3.67;;;15.70;99.90;;;;;;10320451;28;20570;-79
2022/10/25 09:45:45;;;;;;;5.23;4.90;;;15.70;99.90;;;;;;10368846;28;20246;-79
2022/10/25 09:50:52;;;;;;;4.47;4.10;;;15.80;99.90;;;;;;10367810;28;20252;-79
2022/10/25 09:55:57;;;;;;;7.87;4.30;;;15.80;99.90;;;;;;10354911;28;20215;-79
2022/10/25 10:01:01;;;;;;;5.00;4.60;;;15.80;99.90;;;;;;10318274;28;20225;-78
2022/10/25 10:06:12;;;;;;;4.03;3.73;;;15.90;99.90;;;;;;10350997;28;20622;-79
2022/10/25 10:11:17;;;;;;;4.87;4.13;;;16.00;99.90;;;;;;10335736;28;20266;-79
2022/10/25 10:16:23;;;;;;;5.53;4.33;;;16.00;99.90;;;;;;10353455;28;20694;-79
2022/10/25 10:21:25;;;;;;;6.90;3.97;;;16.00;99.90;;;;;;10337860;28;20191;-78
2022/10/25 10:26:31;;;;;;;4.50;3.70;;;16.10;99.90;;;;;;10375235;28;20222;-80
2022/10/25 10:31:36;;;;;;;4.00;3.70;;;16.10;99.90;;;;;;10319857;28;20210;-80
2022/10/25 10:36:41;;;;;;;4.43;3.70;;;16.20;99.90;;;;;;10350923;28;20361;-78
2022/10/25 10:41:59;;;;;;;4.10;3.77;;;16.10;99.90;;;;;;10371788;28;20213;-79
2022/10/25 10:47:09;;;;;;;6.87;4.30;;;16.20;99.90;;;;;;10371236;28;20241;-79
2022/10/25 10:52:29;;;;;;;4.07;3.77;;;16.10;99.90;;;;;;10354399;28;20240;-79
2022/10/25 10:57:35;;;;;;;5.53;4.10;;;16.20;99.90;;;;;;10338299;28;20352;-77
2022/10/25 11:02:40;;;;;;;5.50;4.40;;;16.20;99.90;;;;;;10332038;28;20221;-78
2022/10/25 11:07:42;;;;;;;5.47;3.77;;;16.20;99.90;;;;;;10374491;28;20618;-77
2022/10/25 11:12:45;;;;;;;4.07;3.87;;;16.20;99.90;;;;;;10371830;28;20199;-77
2022/10/25 11:17:52;;;;;;;5.40;4.20;;;16.30;99.90;;;;;;10335915;28;20242;-77
2022/10/25 11:23:03;;;;;;;4.97;4.30;;;16.40;99.90;;;;;;10376361;28;20312;-78
2022/10/25 11:28:21;;;;;;;4.13;3.83;;;16.40;99.90;;;;;;10377700;28;20682;-78
2022/10/25 11:33:43;;;;;;;4.00;3.70;;;16.40;99.90;;;;;;10377730;28;20189;-79
2022/10/25 11:38:58;;;;;;;5.03;3.83;;;16.40;99.90;;;;;;10377624;28;20240;-77
2022/10/25 11:44:26;;;;;;;4.47;4.17;;;16.40;99.90;;;;;;10377119;28;20205;-78
2022/10/25 11:49:41;;;;;;;4.23;4.03;;;16.50;99.90;;;;;;10376665;28;20233;-78
2022/10/25 11:54:50;;;;;;;3.90;3.57;;;16.60;99.90;;;;;;10377255;28;20209;-78
2022/10/25 12:00:02;;;;;;;4.00;3.70;;;16.80;99.90;;;;;;10375754;28;20301;-78
2022/10/25 12:05:23;;;;;;;3.97;3.67;;;16.90;99.90;;;;;;10376137;28;20767;-78
2022/10/25 12:10:32;;;;;;;4.97;3.63;;;17.10;99.90;;;;;;10358388;28;20221;-79
2022/10/25 12:15:39;;;;;;;3.70;3.40;;;17.20;99.90;;;;;;10342354;28;20230;-77
2022/10/25 12:20:43;;;;;;;4.00;3.70;;;17.20;99.90;;;;;;10377507;28;20194;-79
2022/10/25 12:25:48;;;;;;;4.30;3.27;;;17.20;99.90;;;;;;10360884;28;20288;-79
2022/10/25 12:30:57;;;;;;;3.03;2.83;;;17.40;99.90;;;;;;10336094;28;20191;-78
2022/10/25 12:36:03;;;;;;;3.10;2.90;;;17.50;99.90;;;;;;10350891;28;20820;-78
2022/10/25 12:41:09;;;;;;;2.27;2.07;;;17.60;99.90;;;;;;10361097;28;20188;-78
2022/10/25 12:46:50;;;;;;;4.40;3.90;;;17.80;99.90;;;;;;10349897;28;20245;-78
2022/10/25 12:52:10;;;;;;;6.20;4.37;;;17.90;99.90;;;;;;10354830;28;20282;-77
2022/10/25 12:57:19;;;;;;;3.70;3.40;;;18.00;99.90;;;;;;10342766;28;20605;-78
2022/10/25 13:02:54;;;;;;;4.43;3.73;;;18.00;99.90;;;;;;10378218;28;20194;-78
2022/10/25 13:07:58;;;;;;;4.10;3.70;;;18.00;99.90;;;;;;10373766;28;20214;-78
2022/10/25 13:13:02;;;;;;;8.53;4.07;;;18.10;99.90;;;;;;10375286;28;20183;-77
2022/10/25 13:18:07;;;;;;;3.67;3.47;;;18.20;99.90;;;;;;10355551;28;20317;-78
2022/10/25 13:23:42;;;;;;;5.00;4.57;;;18.40;99.90;;;;;;10370439;28;20203;-78
2022/10/25 13:28:46;;;;;;;4.80;4.30;;;18.50;99.90;;;;;;10355843;28;20221;-77
2022/10/25 13:34:22;;;;;;;5.43;4.13;;;18.50;99.90;;;;;;10373486;28;20171;-78
2022/10/25 13:39:28;;;;;;;6.40;4.43;;;18.60;99.90;;;;;;10373576;28;20624;-77
2022/10/25 13:44:30;;;;;;;5.17;4.20;;;18.60;99.90;;;;;;10372946;28;20302;-79
2022/10/25 13:49:40;;;;;;;6.00;3.50;;;18.40;99.90;;;;;;10372994;28;20215;-78
2022/10/25 13:54:47;;;;;;;4.90;4.40;;;18.20;99.90;;;;;;10354864;28;20258;-78
2022/10/25 14:00:01;;;;;;;4.50;4.10;;;18.00;99.90;;;;;;10372430;28;20230;-78
2022/10/25 14:05:05;;;;;;;4.80;4.20;;;17.90;99.90;;;;;;10371584;28;20337;-78
2022/10/25 14:10:12;;;;;;;5.20;4.70;;;17.80;99.90;;;;;;10335855;28;20206;-77
2022/10/25 14:15:22;;;;;;;5.23;4.70;;;17.70;99.90;;;;;;10351224;28;20194;-79
2022/10/25 14:20:29;;;;;;;5.27;4.77;;;17.60;99.90;;;;;;10372868;28;20178;-77
2022/10/25 14:25:34;;;;;;;4.40;4.10;;;17.50;99.90;;;;;;10372689;28;20246;-79
2022/10/25 14:30:40;;;;;;;7.37;4.60;;;17.40;99.90;;;;;;10362767;28;20663;-77
2022/10/25 14:35:48;;;;;;;5.03;4.53;;;17.30;99.90;;;;;;10368200;28;20555;-77
2022/10/25 14:40:52;;;;;;;7.57;4.93;;;17.20;99.90;;;;;;10354179;28;20681;-78
2022/10/25 14:46:00;;;;;;;6.23;5.40;;;17.20;99.90;;;;;;10361114;28;20710;-77
2022/10/25 14:51:08;;;;;;;5.60;4.80;;;17.30;99.90;;;;;;10358811;28;20198;-76
2022/10/25 14:56:10;;;;;;;5.80;4.50;;;17.20;99.90;;;;;;10376760;28;20690;-77
2022/10/25 15:01:12;;;;;;;5.17;4.73;;;17.20;99.90;;;;;;10339923;28;20210;-78
2022/10/25 15:06:16;;;;;;;5.00;4.60;;;17.20;99.90;;;;;;10361895;28;20277;-78
2022/10/25 15:11:20;;;;;;;5.17;4.67;;;17.20;99.90;;;;;;10375133;28;20226;-77
2022/10/25 15:16:32;;;;;;;7.37;4.60;;;17.10;99.90;;;;;;10368015;28;20305;-78
2022/10/25 15:21:41;;;;;;;7.97;4.00;;;17.10;99.90;;;;;;10374928;28;20608;-77
2022/10/25 15:26:54;;;;;;;13.20;4.73;;;17.10;99.90;;;;;;10358342;28;20244;-77
2022/10/25 15:31:57;;;;;;;5.27;4.60;;;17.10;99.90;;;;;;10362184;28;20205;-77
2022/10/25 15:37:00;;;;;;;7.73;5.13;;;17.00;99.90;;;;;;10352276;28;20218;-78
2022/10/25 15:42:02;;;;;;;11.10;4.77;;;17.00;99.90;;;;;;10370133;28;20289;-77
2022/10/25 15:47:04;;;;;;;7.10;5.67;;;16.90;99.90;;;;;;10375505;28;20250;-77
2022/10/25 15:52:14;;;;;;;5.83;4.93;;;16.80;99.90;;;;;;10377437;28;20195;-77
2022/10/25 15:57:16;;;;;;;5.97;5.47;;;16.70;99.90;;;;;;10374022;28;20207;-77
2022/10/25 16:02:21;;;;;;;10.53;5.50;;;16.60;99.90;;;;;;10370059;28;20186;-78
2022/10/25 16:07:25;;;;;;;6.70;5.90;;;16.50;99.90;;;;;;10353692;28;20253;-78
2022/10/25 16:12:32;;;;;;;20.00;8.37;;;16.40;99.90;;;;;;10373447;28;20195;-78
2022/10/25 16:17:34;;;;;;;8.83;5.37;;;16.30;99.90;;;;;;10373303;28;20218;-77
2022/10/25 16:22:37;;;;;;;10.47;7.73;;;16.30;99.90;;;;;;10356229;28;20186;-78
2022/10/25 16:27:41;;;;;;;8.10;7.37;;;16.20;99.90;;;;;;10372928;28;20314;-77
2022/10/25 16:32:44;;;;;;;6.10;5.60;;;16.10;99.90;;;;;;10372769;28;20199;-76
2022/10/25 16:37:47;;;;;;;6.90;5.60;;;16.00;99.90;;;;;;10371952;28;20229;-76
2022/10/25 16:42:49;;;;;;;9.77;5.03;;;16.00;99.90;;;;;;10372431;28;20191;-77
2022/10/25 16:47:55;;;;;;;11.27;7.60;;;15.90;99.90;;;;;;10371879;28;20226;-78
2022/10/25 16:53:00;;;;;;;14.00;9.77;;;15.80;99.90;;;;;;10369528;28;20198;-77
2022/10/25 16:58:02;;;;;;;11.63;7.43;;;15.80;99.90;;;;;;10354293;28;20368;-78
2022/10/25 17:03:04;;;;;;;8.30;6.30;;;15.70;99.90;;;;;;10358828;28;20297;-78
2022/10/25 17:08:08;;;;;;;6.40;5.90;;;15.70;99.90;;;;;;10369656;28;20253;-77
2022/10/25 17:13:14;;;;;;;7.80;6.63;;;15.60;99.90;;;;;;10344975;28;20710;-78
2022/10/25 17:18:19;;;;;;;10.13;7.07;;;15.50;99.90;;;;;;10383636;28;20233;-77
2022/10/25 17:23:23;;;;;;;8.13;5.00;;;15.50;99.90;;;;;;10352706;28;20199;-78
2022/10/25 17:28:25;;;;;;;12.33;7.83;;;15.50;99.90;;;;;;10352418;28;20590;-77
2022/10/25 17:33:27;;;;;;;7.23;5.03;;;15.50;99.90;;;;;;10371212;28;20206;-79
2022/10/25 17:38:31;;;;;;;6.80;6.10;;;15.50;99.90;;;;;;10368253;28;20238;-78
2022/10/25 17:43:34;;;;;;;7.87;6.10;;;15.60;99.90;;;;;;10369624;28;20186;-77
2022/10/25 17:48:36;;;;;;;7.43;5.83;;;15.60;99.90;;;;;;10371584;28;20269;-77
2022/10/25 17:53:40;;;;;;;9.87;8.70;;;15.50;99.90;;;;;;10372079;28;20226;-77
2022/10/25 17:58:43;;;;;;;8.43;6.97;;;15.50;99.90;;;;;;10336627;28;20225;-77
2022/10/25 18:03:46;;;;;;;9.03;7.17;;;15.40;99.90;;;;;;10368195;28;20211;-77
2022/10/25 18:08:52;;;;;;;8.73;5.90;;;15.40;99.90;;;;;;10371858;28;20233;-76
2022/10/25 18:13:56;;;;;;;8.60;6.30;;;15.40;99.90;;;;;;10348504;28;20194;-77
2022/10/25 18:19:00;;;;;;;9.30;7.60;;;15.30;99.90;;;;;;10373782;28;20238;-79
2022/10/25 18:24:04;;;;;;;11.53;9.90;;;15.30;99.90;;;;;;10326473;28;20293;-79
2022/10/25 18:29:08;;;;;;;30.27;18.17;;;15.20;99.90;;;;;;10342263;28;20244;-78
2022/10/25 18:34:10;;;;;;;30.27;21.40;;;15.20;99.90;;;;;;10382144;28;20210;-79
2022/10/25 18:39:14;;;;;;;21.17;14.47;;;15.20;99.90;;;;;;10344077;28;20758;-79
2022/10/25 18:44:16;;;;;;;12.60;11.33;;;15.20;99.90;;;;;;10375742;28;20305;-76
2022/10/25 18:49:18;;;;;;;11.10;9.03;;;15.20;99.90;;;;;;10397104;28;20210;-78
2022/10/25 18:54:21;;;;;;;9.10;6.40;;;15.20;99.90;;;;;;10385313;28;20199;-77
2022/10/25 18:59:23;;;;;;;9.50;8.30;;;15.20;99.90;;;;;;10377482;28;20214;-78
2022/10/25 19:04:26;;;;;;;10.13;8.00;;;15.20;99.90;;;;;;10373762;28;20199;-77
2022/10/25 19:09:29;;;;;;;12.77;11.70;;;15.20;99.90;;;;;;10373185;28;20222;-77
2022/10/25 19:14:31;;;;;;;7.70;7.00;;;15.10;99.90;;;;;;10357983;28;20198;-77
2022/10/25 19:19:34;;;;;;;7.03;6.20;;;15.10;99.90;;;;;;10340384;28;20261;-77
2022/10/25 19:24:37;;;;;;;10.83;5.90;;;15.10;99.90;;;;;;10383010;28;20563;-76
2022/10/25 19:29:39;;;;;;;6.20;5.80;;;15.10;99.90;;;;;;10383865;28;20218;-77
2022/10/25 19:34:42;;;;;;;6.10;5.57;;;15.10;99.90;;;;;;10352084;28;20237;-76
2022/10/25 19:39:45;;;;;;;6.83;6.03;;;15.10;99.90;;;;;;10336240;28;20221;-78
2022/10/25 19:44:48;;;;;;;6.90;5.80;;;15.10;99.90;;;;;;10356443;28;20782;-77
2022/10/25 19:49:50;;;;;;;6.97;6.17;;;15.10;99.90;;;;;;10334191;28;20215;-77
2022/10/25 19:54:54;;;;;;;7.70;6.90;;;15.00;99.90;;;;;;10355554;28;20241;-77
2022/10/25 19:59:56;;;;;;;8.07;7.20;;;15.00;99.90;;;;;;10341752;28;20755;-76
2022/10/25 20:04:58;;;;;;;10.63;8.70;;;15.00;99.90;;;;;;10346093;28;20214;-77
2022/10/25 20:10:01;;;;;;;7.67;7.03;;;14.90;99.90;;;;;;10371648;28;20226;-78
2022/10/25 20:15:04;;;;;;;6.10;5.50;;;14.90;99.90;;;;;;10362896;28;20318;-78
2022/10/25 20:20:07;;;;;;;6.40;5.83;;;14.90;99.90;;;;;;10347568;28;20213;-78
2022/10/25 20:25:11;;;;;;;6.23;5.63;;;14.90;99.90;;;;;;10385998;28;20260;-78
2022/10/25 20:30:13;;;;;;;9.47;6.80;;;14.80;99.90;;;;;;10361601;28;20225;-78
2022/10/25 20:35:15;;;;;;;6.03;5.53;;;14.80;99.90;;;;;;10365683;28;20550;-78
2022/10/25 20:40:19;;;;;;;6.50;5.90;;;14.80;99.90;;;;;;10372196;28;20219;-78
2022/10/25 20:45:21;;;;;;;7.77;5.87;;;14.80;99.90;;;;;;10342068;28;20226;-78
2022/10/25 20:50:24;;;;;;;7.30;5.70;;;14.70;99.90;;;;;;10366491;28;20199;-78
2022/10/25 20:55:28;;;;;;;9.77;6.50;;;14.70;99.90;;;;;;10370972;28;20228;-78
2022/10/25 21:00:31;;;;;;;6.23;5.63;;;14.70;99.90;;;;;;10356457;28;20253;-77
2022/10/25 21:05:33;;;;;;;12.23;6.50;;;14.70;99.90;;;;;;10351254;28;20222;-77
2022/10/25 21:10:40;;;;;;;9.20;7.37;;;14.60;99.90;;;;;;10372377;28;20195;-77
2022/10/25 21:15:45;;;;;;;7.63;5.90;;;14.60;99.90;;;;;;10375104;28;20722;-78
2022/10/25 21:20:48;;;;;;;11.50;8.10;;;14.60;99.90;;;;;;10355826;28;20740;-78
2022/10/25 21:25:58;;;;;;;9.07;5.73;;;14.60;99.90;;;;;;10371053;28;20225;-78
2022/10/25 21:31:01;;;;;;;8.83;6.30;;;14.60;99.90;;;;;;10366095;28;20729;-79
2022/10/25 21:36:05;;;;;;;9.90;5.03;;;14.60;99.90;;;;;;10381075;28;20207;-81
2022/10/25 21:41:11;;;;;;;8.27;7.47;;;14.70;99.90;;;;;;10348002;28;20201;-79
2022/10/25 21:46:14;;;;;;;6.43;5.93;;;14.70;99.90;;;;;;10377804;28;20233;-79
2022/10/25 21:51:17;;;;;;;9.90;7.73;;;14.70;99.90;;;;;;10364119;28;20215;-79
2022/10/25 21:56:28;;;;;;;7.87;7.17;;;14.70;99.90;;;;;;10379354;28;20294;-78
2022/10/25 22:01:30;;;;;;;6.00;5.63;;;14.80;99.90;;;;;;10393406;28;20213;-79
2022/10/25 22:06:32;;;;;;;10.03;6.47;;;14.80;99.90;;;;;;10358917;28;20309;-76
2022/10/25 22:11:38;;;;;;;7.00;6.50;;;14.90;99.90;;;;;;10369291;28;20285;-78
2022/10/25 22:16:40;;;;;;;8.00;7.30;;;14.90;99.90;;;;;;10369885;28;20222;-76
2022/10/25 22:21:43;;;;;;;7.70;7.20;;;15.00;99.90;;;;;;10369460;28;20564;-78
2022/10/25 22:26:50;;;;;;;8.17;7.37;;;15.10;99.90;;;;;;10369520;28;20553;-79
2022/10/25 22:31:52;;;;;;;8.70;7.80;;;15.10;99.90;;;;;;10356118;28;20272;-77
2022/10/25 22:36:54;;;;;;;8.13;7.23;;;15.10;99.90;;;;;;10368559;28;20596;-76
2022/10/25 22:41:58;;;;;;;7.43;6.20;;;15.20;99.90;;;;;;10345750;28;20219;-77
2022/10/25 22:47:00;;;;;;;8.50;5.63;;;15.20;99.90;;;;;;10330836;28;20266;-77
2022/10/25 22:52:02;;;;;;;8.20;5.70;;;15.20;99.90;;;;;;10357508;28;20194;-78
2022/10/25 22:57:05;;;;;;;7.07;6.37;;;15.20;99.90;;;;;;10371426;28;20207;-78
2022/10/25 23:02:08;;;;;;;6.30;5.80;;;15.20;99.90;;;;;;10330620;28;20583;-77
2022/10/25 23:07:10;;;;;;;6.90;6.23;;;15.30;99.90;;;;;;10352221;28;20301;-77
2022/10/25 23:12:13;;;;;;;16.93;7.57;;;15.30;99.90;;;;;;10353461;28;20266;-77
2022/10/25 23:17:15;;;;;;;7.10;5.87;;;15.30;99.90;;;;;;10358825;28;20307;-78
2022/10/25 23:22:17;;;;;;;7.57;6.33;;;15.20;99.90;;;;;;10369589;28;20291;-77
2022/10/25 23:27:20;;;;;;;6.40;5.80;;;15.20;99.90;;;;;;10372298;28;20242;-78
2022/10/25 23:32:22;;;;;;;6.07;5.67;;;15.20;99.90;;;;;;10380661;28;20195;-78
2022/10/25 23:37:24;;;;;;;8.63;6.10;;;15.20;99.90;;;;;;10375915;28;20679;-77
2022/10/25 23:42:28;;;;;;;7.53;6.87;;;15.20;99.90;;;;;;10375116;28;20285;-76
2022/10/25 23:47:30;;;;;;;9.40;6.93;;;15.20;99.90;;;;;;10375102;28;20242;-77
2022/10/25 23:52:32;;;;;;;11.93;5.60;;;15.20;99.90;;;;;;10374844;28;20597;-75
2022/10/25 23:57:35;;;;;;;28.47;6.13;;;15.20;99.90;;;;;;10374645;28;20210;-77
